sensor_id;sensor_type;location;lat;lon;timestamp;pressure;altitude;pressure_sealevel;temperature;humidity
22755;BME280;11544;42.020;23.094;2023-04-01T00:00:00;96326.34;;;14.87;46.28
22755;BME280;11544;42.020;23.094;2023-04-01T00:02:27;96318.91;;;14.94;46.10
22755;BME280;11544;42.020;23.094;2023-04-01T00:04:54;96323.47;;;14.50;46.83
22755;BME280;11544;42.020;23.094;2023-04-01T00:07:22;96329.78;;;14.88;46.33
22755;BME280;11544;42.020;23.094;2023-04-01T00:09:49;96328.38;;;14.69;46.56
22755;BME280;11544;42.020;23.094;2023-04-01T00:12:16;96331.34;;;14.77;46.58
22755;BME280;11544;42.020;23.094;2023-04-01T00:14:44;96329.78;;;14.88;46.33
22755;BME280;11544;42.020;23.094;2023-04-01T00:17:11;96336.22;;;14.96;46.34
22755;BME280;11544;42.020;23.094;2023-04-01T00:19:38;96330.91;;;14.71;46.93
22755;BME280;11544;42.020;23.094;2023-04-01T00:22:05;96328.53;;;14.80;46.94
22755;BME280;11544;42.020;23.094;2023-04-01T00:24:33;96317.94;;;14.82;47.07
22755;BME280;11544;42.020;23.094;2023-04-01T00:27:00;96322.97;;;14.72;47.34
22755;BME280;11544;42.020;23.094;2023-04-01T00:29:27;96321.78;;;14.36;47.85
22755;BME280;11544;42.020;23.094;2023-04-01T00:31:56;96326.75;;;14.27;48.86
22755;BME280;11544;42.020;23.094;2023-04-01T00:34:23;96324.44;;;14.76;47.39
22755;BME280;11544;42.020;23.094;2023-04-01T00:36:51;96316.91;;;14.97;47.64
22755;BME280;11544;42.020;23.094;2023-04-01T00:39:21;96324.25;;;14.92;47.37
22755;BME280;11544;42.020;23.094;2023-04-01T00:41:48;96329.94;;;14.99;47.49
22755;BME280;11544;42.020;23.094;2023-04-01T00:44:18;96324.50;;;14.48;48.63
22755;BME280;11544;42.020;23.094;2023-04-01T00:46:46;96331.84;;;14.43;49.17
22755;BME280;11544;42.020;23.094;2023-04-01T00:49:15;96318.41;;;14.34;49.18
22755;BME280;11544;42.020;23.094;2023-04-01T00:51:45;96319.00;;;14.25;49.69
22755;BME280;11544;42.020;23.094;2023-04-01T00:54:15;96312.63;;;13.88;50.37
22755;BME280;11544;42.020;23.094;2023-04-01T00:56:48;96313.09;;;14.22;49.49
22755;BME280;11544;42.020;23.094;2023-04-01T00:59:23;96300.28;;;14.17;49.68
22755;BME280;11544;42.020;23.094;2023-04-01T01:01:50;96302.06;;;14.16;50.28
22755;BME280;11544;42.020;23.094;2023-04-01T01:04:30;96296.19;;;14.40;49.44
22755;BME280;11544;42.020;23.094;2023-04-01T01:09:56;96280.69;;;14.50;49.39
22755;BME280;11544;42.020;23.094;2023-04-01T01:12:41;96296.16;;;14.54;49.70
22755;BME280;11544;42.020;23.094;2023-04-01T01:21:21;96286.75;;;14.37;50.11
22755;BME280;11544;42.020;23.094;2023-04-01T01:27:28;96287.56;;;14.38;50.21
22755;BME280;11544;42.020;23.094;2023-04-01T01:30:22;96277.00;;;14.52;49.74
22755;BME280;11544;42.020;23.094;2023-04-01T01:33:24;96279.94;;;14.48;50.07
22755;BME280;11544;42.020;23.094;2023-04-01T01:36:01;96275.53;;;14.08;51.19
22755;BME280;11544;42.020;23.094;2023-04-01T01:38:32;96282.97;;;14.14;51.14
22755;BME280;11544;42.020;23.094;2023-04-01T01:41:02;96282.97;;;14.14;51.24
22755;BME280;11544;42.020;23.094;2023-04-01T01:43:36;96276.41;;;14.22;50.96
22755;BME280;11544;42.020;23.094;2023-04-01T01:46:17;96275.31;;;13.84;51.87
22755;BME280;11544;42.020;23.094;2023-04-01T01:48:47;96275.47;;;13.95;51.50
22755;BME280;11544;42.020;23.094;2023-04-01T01:51:15;96273.91;;;13.79;52.28
22755;BME280;11544;42.020;23.094;2023-04-01T01:53:43;96274.00;;;13.77;52.77
22755;BME280;11544;42.020;23.094;2023-04-01T01:56:11;96281.06;;;14.04;52.45
22755;BME280;11544;42.020;23.094;2023-04-01T01:58:45;96263.81;;;13.87;52.60
22755;BME280;11544;42.020;23.094;2023-04-01T02:01:24;96260.78;;;14.20;52.02
22755;BME280;11544;42.020;23.094;2023-04-01T02:03:53;96273.75;;;14.09;52.38
22755;BME280;11544;42.020;23.094;2023-04-01T02:06:24;96261.63;;;13.23;53.44
22755;BME280;11544;42.020;23.094;2023-04-01T02:08:56;96259.38;;;13.46;53.75
22755;BME280;11544;42.020;23.094;2023-04-01T02:11:30;96264.84;;;13.84;53.11
22755;BME280;11544;42.020;23.094;2023-04-01T02:14:04;96253.50;;;13.84;53.08
22755;BME280;11544;42.020;23.094;2023-04-01T02:16:42;96244.69;;;13.58;52.63
22755;BME280;11544;42.020;23.094;2023-04-01T02:19:13;96238.47;;;14.00;52.93
22755;BME280;11544;42.020;23.094;2023-04-01T02:21:42;96241.72;;;13.76;53.16
22755;BME280;11544;42.020;23.094;2023-04-01T02:24:12;96238.16;;;13.92;52.16
22755;BME280;11544;42.020;23.094;2023-04-01T02:26:41;96242.47;;;13.79;52.22
22755;BME280;11544;42.020;23.094;2023-04-01T02:29:09;96236.34;;;13.51;52.81
22755;BME280;11544;42.020;23.094;2023-04-01T02:31:38;96235.94;;;13.30;53.50
22755;BME280;11544;42.020;23.094;2023-04-01T02:34:05;96225.34;;;13.46;53.15
22755;BME280;11544;42.020;23.094;2023-04-01T02:36:35;96223.69;;;13.30;53.39
22755;BME280;11544;42.020;23.094;2023-04-01T02:39:03;96225.44;;;13.01;53.76
22755;BME280;11544;42.020;23.094;2023-04-01T02:41:31;96220.09;;;13.17;54.02
22755;BME280;11544;42.020;23.094;2023-04-01T02:43:58;96228.78;;;12.89;54.46
22755;BME280;11544;42.020;23.094;2023-04-01T02:46:25;96235.44;;;13.09;54.49
22755;BME280;11544;42.020;23.094;2023-04-01T02:48:52;96235.25;;;12.98;54.70
22755;BME280;11544;42.020;23.094;2023-04-01T02:51:20;96247.81;;;13.77;52.72
22755;BME280;11544;42.020;23.094;2023-04-01T02:53:47;96242.53;;;13.64;52.34
22755;BME280;11544;42.020;23.094;2023-04-01T02:56:14;96235.91;;;13.59;52.30
22755;BME280;11544;42.020;23.094;2023-04-01T02:58:41;96233.63;;;13.67;52.09
22755;BME280;11544;42.020;23.094;2023-04-01T03:01:08;96228.34;;;13.40;52.20
22755;BME280;11544;42.020;23.094;2023-04-01T03:03:34;96242.19;;;13.56;52.33
22755;BME280;11544;42.020;23.094;2023-04-01T03:06:09;96237.06;;;13.67;51.66
22755;BME280;11544;42.020;23.094;2023-04-01T03:08:37;96224.72;;;13.69;52.20
22755;BME280;11544;42.020;23.094;2023-04-01T03:11:04;96227.25;;;13.71;52.23
22755;BME280;11544;42.020;23.094;2023-04-01T03:13:32;96227.63;;;13.65;52.12
22755;BME280;11544;42.020;23.094;2023-04-01T03:16:00;96218.44;;;13.45;53.62
22755;BME280;11544;42.020;23.094;2023-04-01T03:18:27;96216.06;;;13.54;53.33
22755;BME280;11544;42.020;23.094;2023-04-01T03:20:54;96218.06;;;13.37;53.98
22755;BME280;11544;42.020;23.094;2023-04-01T03:23:21;96210.00;;;13.54;53.51
22755;BME280;11544;42.020;23.094;2023-04-01T03:25:48;96205.53;;;13.13;54.22
22755;BME280;11544;42.020;23.094;2023-04-01T03:28:15;96197.22;;;13.21;54.29
22755;BME280;11544;42.020;23.094;2023-04-01T03:30:42;96194.34;;;13.40;53.52
22755;BME280;11544;42.020;23.094;2023-04-01T03:33:09;96199.53;;;12.82;55.05
22755;BME280;11544;42.020;23.094;2023-04-01T03:35:36;96193.88;;;13.04;54.43
22755;BME280;11544;42.020;23.094;2023-04-01T03:38:03;96192.63;;;13.10;54.52
22755;BME280;11544;42.020;23.094;2023-04-01T03:40:31;96196.66;;;13.16;54.04
22755;BME280;11544;42.020;23.094;2023-04-01T03:42:59;96191.53;;;13.28;53.64
22755;BME280;11544;42.020;23.094;2023-04-01T03:45:28;96194.31;;;13.25;53.97
22755;BME280;11544;42.020;23.094;2023-04-01T03:47:55;96186.47;;;12.82;54.91
22755;BME280;11544;42.020;23.094;2023-04-01T03:50:22;96191.16;;;12.91;55.25
22755;BME280;11544;42.020;23.094;2023-04-01T03:52:49;96185.34;;;13.15;54.77
22755;BME280;11544;42.020;23.094;2023-04-01T03:55:18;96190.28;;;13.20;54.77
22755;BME280;11544;42.020;23.094;2023-04-01T03:57:45;96184.13;;;13.49;54.31
22755;BME280;11544;42.020;23.094;2023-04-01T04:00:12;96190.75;;;13.41;53.97
22755;BME280;11544;42.020;23.094;2023-04-01T04:02:40;96184.41;;;13.16;54.85
22755;BME280;11544;42.020;23.094;2023-04-01T04:05:08;96170.66;;;13.27;54.80
22755;BME280;11544;42.020;23.094;2023-04-01T04:07:35;96173.22;;;13.00;54.88
22755;BME280;11544;42.020;23.094;2023-04-01T04:10:02;96153.94;;;13.29;54.83
22755;BME280;11544;42.020;23.094;2023-04-01T04:12:29;96160.63;;;13.48;54.08
22755;BME280;11544;42.020;23.094;2023-04-01T04:14:57;96154.06;;;13.55;54.05
22755;BME280;11544;42.020;23.094;2023-04-01T04:17:24;96148.50;;;13.47;53.87
22755;BME280;11544;42.020;23.094;2023-04-01T04:19:54;96155.50;;;13.46;53.86
22755;BME280;11544;42.020;23.094;2023-04-01T04:22:21;96147.63;;;13.46;53.63
22755;BME280;11544;42.020;23.094;2023-04-01T04:24:48;96150.16;;;13.48;53.23
22755;BME280;11544;42.020;23.094;2023-04-01T04:27:16;96153.03;;;13.58;53.27
22755;BME280;11544;42.020;23.094;2023-04-01T04:29:43;96144.09;;;13.47;52.58
22755;BME280;11544;42.020;23.094;2023-04-01T04:32:11;96137.88;;;13.36;55.05
22755;BME280;11544;42.020;23.094;2023-04-01T04:34:38;96147.59;;;13.33;55.89
22755;BME280;11544;42.020;23.094;2023-04-01T04:37:05;96140.53;;;13.48;55.56
22755;BME280;11544;42.020;23.094;2023-04-01T04:39:32;96132.19;;;13.14;56.99
22755;BME280;11544;42.020;23.094;2023-04-01T04:42:00;96130.03;;;13.21;56.46
22755;BME280;11544;42.020;23.094;2023-04-01T04:44:30;96129.81;;;13.24;56.79
22755;BME280;11544;42.020;23.094;2023-04-01T04:46:57;96129.91;;;13.23;57.10
22755;BME280;11544;42.020;23.094;2023-04-01T04:49:28;96126.13;;;13.28;56.80
22755;BME280;11544;42.020;23.094;2023-04-01T04:52:05;96124.88;;;13.61;56.20
22755;BME280;11544;42.020;23.094;2023-04-01T04:54:33;96114.56;;;13.45;55.78
22755;BME280;11544;42.020;23.094;2023-04-01T04:57:00;96117.50;;;13.81;55.87
22755;BME280;11544;42.020;23.094;2023-04-01T04:59:27;96110.22;;;13.31;56.72
22755;BME280;11544;42.020;23.094;2023-04-01T05:01:54;96112.97;;;13.43;57.92
22755;BME280;11544;42.020;23.094;2023-04-01T05:04:21;96110.84;;;13.62;57.17
22755;BME280;11544;42.020;23.094;2023-04-01T05:06:48;96092.84;;;13.30;58.18
22755;BME280;11544;42.020;23.094;2023-04-01T05:09:15;96101.66;;;13.69;56.41
22755;BME280;11544;42.020;23.094;2023-04-01T05:11:41;96092.81;;;13.97;55.71
22755;BME280;11544;42.020;23.094;2023-04-01T05:14:15;96097.75;;;13.62;56.20
22755;BME280;11544;42.020;23.094;2023-04-01T05:16:43;96094.50;;;13.31;56.95
22755;BME280;11544;42.020;23.094;2023-04-01T05:19:09;96092.94;;;13.56;55.79
22755;BME280;11544;42.020;23.094;2023-04-01T05:21:36;96089.50;;;13.68;55.92
22755;BME280;11544;42.020;23.094;2023-04-01T05:24:08;96081.22;;;13.74;55.95
22755;BME280;11544;42.020;23.094;2023-04-01T05:26:36;96080.53;;;13.98;55.10
22755;BME280;11544;42.020;23.094;2023-04-01T05:29:04;96069.44;;;13.94;56.16
22755;BME280;11544;42.020;23.094;2023-04-01T05:31:31;96064.84;;;14.49;54.47
22755;BME280;11544;42.020;23.094;2023-04-01T05:33:58;96062.78;;;14.67;53.39
22755;BME280;11544;42.020;23.094;2023-04-01T05:36:29;96069.13;;;14.89;53.25
22755;BME280;11544;42.020;23.094;2023-04-01T05:38:56;96071.84;;;15.48;52.00
22755;BME280;11544;42.020;23.094;2023-04-01T05:41:24;96059.72;;;15.58;51.88
22755;BME280;11544;42.020;23.094;2023-04-01T05:43:51;96068.22;;;16.66;50.04
22755;BME280;11544;42.020;23.094;2023-04-01T05:46:18;96054.47;;;17.51;46.70
22755;BME280;11544;42.020;23.094;2023-04-01T05:48:45;96035.31;;;16.72;47.86
22755;BME280;11544;42.020;23.094;2023-04-01T05:51:15;96021.81;;;16.20;49.42
22755;BME280;11544;42.020;23.094;2023-04-01T05:53:42;96017.88;;;16.26;49.33
22755;BME280;11544;42.020;23.094;2023-04-01T05:56:10;96015.72;;;16.31;49.03
22755;BME280;11544;42.020;23.094;2023-04-01T05:58:37;96010.72;;;16.73;49.00
22755;BME280;11544;42.020;23.094;2023-04-01T06:01:09;96017.53;;;17.30;47.55
22755;BME280;11544;42.020;23.094;2023-04-01T06:03:41;96026.94;;;17.12;48.26
22755;BME280;11544;42.020;23.094;2023-04-01T06:06:22;96024.22;;;16.91;50.24
22755;BME280;11544;42.020;23.094;2023-04-01T06:08:51;96019.44;;;16.96;51.53
22755;BME280;11544;42.020;23.094;2023-04-01T06:11:32;96010.72;;;17.28;50.95
22755;BME280;11544;42.020;23.094;2023-04-01T06:14:12;96009.66;;;17.19;50.42
22755;BME280;11544;42.020;23.094;2023-04-01T06:17:00;96003.84;;;17.04;49.25
22755;BME280;11544;42.020;23.094;2023-04-01T06:19:36;96008.44;;;16.68;50.07
22755;BME280;11544;42.020;23.094;2023-04-01T06:29:19;96004.47;;;16.97;48.68
22755;BME280;11544;42.020;23.094;2023-04-01T06:35:14;95981.53;;;17.52;47.93
22755;BME280;11544;42.020;23.094;2023-04-01T06:46:21;95970.63;;;16.69;49.94
22755;BME280;11544;42.020;23.094;2023-04-01T06:54:42;95950.34;;;16.15;51.34
22755;BME280;11544;42.020;23.094;2023-04-01T06:57:38;95951.44;;;16.24;51.29
22755;BME280;11544;42.020;23.094;2023-04-01T07:00:15;95956.06;;;16.20;51.88
22755;BME280;11544;42.020;23.094;2023-04-01T07:05:36;95950.09;;;16.29;50.87
22755;BME280;11544;42.020;23.094;2023-04-01T07:08:08;95946.38;;;16.77;49.68
22755;BME280;11544;42.020;23.094;2023-04-01T07:13:39;95956.91;;;16.66;49.28
22755;BME280;11544;42.020;23.094;2023-04-01T07:16:33;95956.09;;;16.43;50.49
22755;BME280;11544;42.020;23.094;2023-04-01T07:19:18;95975.44;;;16.19;51.30
22755;BME280;11544;42.020;23.094;2023-04-01T07:21:52;95975.69;;;16.16;51.61
22755;BME280;11544;42.020;23.094;2023-04-01T07:24:27;95964.06;;;15.96;51.73
22755;BME280;11544;42.020;23.094;2023-04-01T07:26:56;95967.47;;;16.21;51.68
22755;BME280;11544;42.020;23.094;2023-04-01T07:29:25;95977.25;;;16.19;51.23
22755;BME280;11544;42.020;23.094;2023-04-01T07:38:15;95967.94;;;16.37;50.89
22755;BME280;11544;42.020;23.094;2023-04-01T07:43:05;95955.72;;;16.47;49.82
22755;BME280;11544;42.020;23.094;2023-04-01T07:54:08;95940.19;;;15.88;51.24
22755;BME280;11544;42.020;23.094;2023-04-01T07:56:47;95939.84;;;16.15;51.58
22755;BME280;11544;42.020;23.094;2023-04-01T08:02:30;95952.50;;;16.21;51.72
22755;BME280;11544;42.020;23.094;2023-04-01T08:05:13;95947.22;;;15.99;52.43
22755;BME280;11544;42.020;23.094;2023-04-01T08:07:57;95939.06;;;16.58;52.38
22755;BME280;11544;42.020;23.094;2023-04-01T08:10:36;95938.28;;;16.35;52.67
22755;BME280;11544;42.020;23.094;2023-04-01T08:18:43;95927.66;;;16.25;54.56
22755;BME280;11544;42.020;23.094;2023-04-01T08:21:27;95926.63;;;16.60;53.98
22755;BME280;11544;42.020;23.094;2023-04-01T08:23:57;95924.53;;;16.54;52.24
22755;BME280;11544;42.020;23.094;2023-04-01T08:29:18;95921.28;;;16.39;52.90
22755;BME280;11544;42.020;23.094;2023-04-01T08:32:04;95919.13;;;16.56;51.73
22755;BME280;11544;42.020;23.094;2023-04-01T08:34:39;95910.34;;;16.12;51.01
22755;BME280;11544;42.020;23.094;2023-04-01T08:37:14;95894.56;;;16.12;50.41
22755;BME280;11544;42.020;23.094;2023-04-01T08:50:58;95863.19;;;16.54;50.21
22755;BME280;11544;42.020;23.094;2023-04-01T08:53:50;95866.69;;;16.20;50.59
22755;BME280;11544;42.020;23.094;2023-04-01T08:56:40;95850.44;;;16.26;50.56
22755;BME280;11544;42.020;23.094;2023-04-01T08:59:31;95847.25;;;16.55;50.52
22755;BME280;11544;42.020;23.094;2023-04-01T09:05:36;95825.81;;;16.27;50.48
22755;BME280;11544;42.020;23.094;2023-04-01T09:22:22;95786.97;;;17.78;47.08
22755;BME280;11544;42.020;23.094;2023-04-01T09:35:24;95768.78;;;17.34;47.18
22755;BME280;11544;42.020;23.094;2023-04-01T09:40:46;95772.50;;;17.63;46.90
22755;BME280;11544;42.020;23.094;2023-04-01T09:46:06;95759.84;;;17.26;47.12
22755;BME280;11544;42.020;23.094;2023-04-01T09:54:31;95735.81;;;16.88;47.92
22755;BME280;11544;42.020;23.094;2023-04-01T09:59:47;95731.44;;;17.50;46.90
22755;BME280;11544;42.020;23.094;2023-04-01T10:22:51;95735.03;;;17.99;45.35
22755;BME280;11544;42.020;23.094;2023-04-01T10:35:14;95719.72;;;17.43;46.81
22755;BME280;11544;42.020;23.094;2023-04-01T10:54:45;95690.75;;;17.43;47.79
22755;BME280;11544;42.020;23.094;2023-04-01T10:57:18;95696.75;;;17.55;47.55
22755;BME280;11544;42.020;23.094;2023-04-01T11:25:21;95641.00;;;17.50;48.34
22755;BME280;11544;42.020;23.094;2023-04-01T11:28:16;95646.31;;;17.60;47.78
22755;BME280;11544;42.020;23.094;2023-04-01T11:36:03;95636.34;;;17.63;47.09
22755;BME280;11544;42.020;23.094;2023-04-01T11:38:47;95629.19;;;17.85;46.45
22755;BME280;11544;42.020;23.094;2023-04-01T11:41:40;95613.38;;;17.85;46.67
22755;BME280;11544;42.020;23.094;2023-04-01T11:44:21;95605.59;;;17.83;45.75
22755;BME280;11544;42.020;23.094;2023-04-01T11:47:19;95611.16;;;18.19;45.31
22755;BME280;11544;42.020;23.094;2023-04-01T11:55:46;95600.44;;;18.30;44.83
22755;BME280;11544;42.020;23.094;2023-04-01T12:04:18;95617.38;;;18.28;43.18
22755;BME280;11544;42.020;23.094;2023-04-01T12:12:36;95705.66;;;18.14;45.86
22755;BME280;11544;42.020;23.094;2023-04-01T12:18:20;95840.81;;;15.13;84.73
22755;BME280;11544;42.020;23.094;2023-04-01T12:20:50;95857.75;;;14.73;95.43
22755;BME280;11544;42.020;23.094;2023-04-01T12:40:49;95854.09;;;14.87;100.00
22755;BME280;11544;42.020;23.094;2023-04-01T12:46:41;95846.91;;;14.78;100.00
22755;BME280;11544;42.020;23.094;2023-04-01T12:52:15;95845.50;;;14.85;100.00
22755;BME280;11544;42.020;23.094;2023-04-01T13:03:47;95876.69;;;15.01;100.00
22755;BME280;11544;42.020;23.094;2023-04-01T13:20:48;95818.16;;;14.52;100.00
22755;BME280;11544;42.020;23.094;2023-04-01T13:40:27;95802.78;;;15.30;100.00
22755;BME280;11544;42.020;23.094;2023-04-01T13:43:12;95787.03;;;15.18;100.00
22755;BME280;11544;42.020;23.094;2023-04-01T14:00:26;95757.75;;;16.13;94.74
22755;BME280;11544;42.020;23.094;2023-04-01T14:14:26;95803.63;;;15.30;97.83
22755;BME280;11544;42.020;23.094;2023-04-01T14:17:05;95819.53;;;15.62;97.19
22755;BME280;11544;42.020;23.094;2023-04-01T14:19:47;95805.31;;;15.31;100.00
22755;BME280;11544;42.020;23.094;2023-04-01T14:22:36;95805.31;;;15.54;100.00
22755;BME280;11544;42.020;23.094;2023-04-01T14:26:09;95795.53;;;15.44;100.00
22755;BME280;11544;42.020;23.094;2023-04-01T14:30:43;95792.19;;;15.31;100.00
22755;BME280;11544;42.020;23.094;2023-04-01T14:33:42;95801.22;;;15.16;100.00
22755;BME280;11544;42.020;23.094;2023-04-01T14:36:29;95815.63;;;14.99;100.00
22755;BME280;11544;42.020;23.094;2023-04-01T14:42:23;95860.44;;;14.60;100.00
22755;BME280;11544;42.020;23.094;2023-04-01T14:47:54;95840.88;;;15.46;100.00
22755;BME280;11544;42.020;23.094;2023-04-01T14:50:28;95842.78;;;15.44;100.00
22755;BME280;11544;42.020;23.094;2023-04-01T14:58:14;95818.09;;;16.03;100.00
22755;BME280;11544;42.020;23.094;2023-04-01T15:03:33;95814.19;;;15.86;100.00
22755;BME280;11544;42.020;23.094;2023-04-01T15:06:40;95808.47;;;15.81;100.00
22755;BME280;11544;42.020;23.094;2023-04-01T15:09:24;95804.94;;;16.26;100.00
22755;BME280;11544;42.020;23.094;2023-04-01T15:15:04;95822.06;;;16.52;100.00
22755;BME280;11544;42.020;23.094;2023-04-01T15:18:12;95826.63;;;16.39;100.00
22755;BME280;11544;42.020;23.094;2023-04-01T15:21:18;95843.66;;;16.13;100.00
22755;BME280;11544;42.020;23.094;2023-04-01T15:23:49;95833.28;;;15.88;100.00
22755;BME280;11544;42.020;23.094;2023-04-01T15:32:05;95826.44;;;15.41;97.29
22755;BME280;11544;42.020;23.094;2023-04-01T15:34:57;95817.25;;;15.58;97.32
22755;BME280;11544;42.020;23.094;2023-04-01T15:45:17;95845.72;;;15.98;90.81
22755;BME280;11544;42.020;23.094;2023-04-01T15:48:19;95849.81;;;16.34;90.88
22755;BME280;11544;42.020;23.094;2023-04-01T15:54:08;95858.00;;;15.75;92.68
22755;BME280;11544;42.020;23.094;2023-04-01T16:08:12;95849.41;;;15.61;87.12
22755;BME280;11544;42.020;23.094;2023-04-01T16:19:17;95855.25;;;15.18;91.21
22755;BME280;11544;42.020;23.094;2023-04-01T16:22:00;95851.97;;;14.92;93.21
22755;BME280;11544;42.020;23.094;2023-04-01T16:24:39;95856.56;;;14.77;94.06
22755;BME280;11544;42.020;23.094;2023-04-01T16:30:47;95882.16;;;14.63;98.07
22755;BME280;11544;42.020;23.094;2023-04-01T16:33:32;95888.53;;;14.82;99.34
22755;BME280;11544;42.020;23.094;2023-04-01T16:36:13;95887.94;;;14.79;98.46
22755;BME280;11544;42.020;23.094;2023-04-01T16:39:02;95893.06;;;14.56;97.65
22755;BME280;11544;42.020;23.094;2023-04-01T16:41:35;95899.13;;;14.81;98.29
22755;BME280;11544;42.020;23.094;2023-04-01T16:44:18;95909.38;;;14.73;95.71
22755;BME280;11544;42.020;23.094;2023-04-01T16:46:51;95906.38;;;15.01;95.19
22755;BME280;11544;42.020;23.094;2023-04-01T16:49:42;95898.53;;;15.01;93.50
22755;BME280;11544;42.020;23.094;2023-04-01T16:52:15;95914.00;;;14.93;95.13
22755;BME280;11544;42.020;23.094;2023-04-01T16:55:14;95932.22;;;14.84;97.49
22755;BME280;11544;42.020;23.094;2023-04-01T16:57:57;95918.91;;;14.74;99.13
22755;BME280;11544;42.020;23.094;2023-04-01T17:00:47;95924.47;;;14.19;100.00
22755;BME280;11544;42.020;23.094;2023-04-01T17:03:45;95955.09;;;14.32;100.00
22755;BME280;11544;42.020;23.094;2023-04-01T17:17:29;95977.97;;;13.91;100.00
22755;BME280;11544;42.020;23.094;2023-04-01T17:26:46;95986.16;;;13.87;100.00
22755;BME280;11544;42.020;23.094;2023-04-01T17:29:28;96009.91;;;14.09;100.00
22755;BME280;11544;42.020;23.094;2023-04-01T17:32:17;96025.44;;;13.87;100.00
22755;BME280;11544;42.020;23.094;2023-04-01T17:43:48;96064.44;;;13.91;100.00
22755;BME280;11544;42.020;23.094;2023-04-01T17:49:05;96072.97;;;13.41;100.00
22755;BME280;11544;42.020;23.094;2023-04-01T17:51:41;96076.59;;;13.11;100.00
22755;BME280;11544;42.020;23.094;2023-04-01T18:00:18;96094.03;;;12.83;88.66
22755;BME280;11544;42.020;23.094;2023-04-01T18:08:51;96085.63;;;12.78;82.51
22755;BME280;11544;42.020;23.094;2023-04-01T18:11:50;96086.25;;;12.82;82.26
22755;BME280;11544;42.020;23.094;2023-04-01T18:17:30;96093.63;;;12.89;81.15
22755;BME280;11544;42.020;23.094;2023-04-01T18:22:53;96119.44;;;12.81;79.06
22755;BME280;11544;42.020;23.094;2023-04-01T18:25:33;96128.09;;;12.82;82.13
22755;BME280;11544;42.020;23.094;2023-04-01T18:34:02;96145.38;;;12.56;83.76
22755;BME280;11544;42.020;23.094;2023-04-01T18:36:55;96138.47;;;12.55;80.61
22755;BME280;11544;42.020;23.094;2023-04-01T18:39:41;96134.72;;;12.44;79.25
22755;BME280;11544;42.020;23.094;2023-04-01T18:45:23;96135.47;;;12.46;77.25
22755;BME280;11544;42.020;23.094;2023-04-01T18:54:17;96151.63;;;12.67;75.51
22755;BME280;11544;42.020;23.094;2023-04-01T18:56:49;96154.44;;;12.64;76.42
22755;BME280;11544;42.020;23.094;2023-04-01T18:59:23;96168.78;;;12.28;82.85
22755;BME280;11544;42.020;23.094;2023-04-01T19:05:11;96191.97;;;11.73;96.46
22755;BME280;11544;42.020;23.094;2023-04-01T19:21:41;96226.91;;;11.54;97.14
22755;BME280;11544;42.020;23.094;2023-04-01T19:24:20;96220.84;;;11.70;96.90
22755;BME280;11544;42.020;23.094;2023-04-01T19:27:06;96229.34;;;11.26;98.64
22755;BME280;11544;42.020;23.094;2023-04-01T19:34:49;96237.94;;;11.28;100.00
22755;BME280;11544;42.020;23.094;2023-04-01T19:42:59;96270.94;;;11.76;99.02
22755;BME280;11544;42.020;23.094;2023-04-01T19:52:35;96276.28;;;12.53;93.24
22755;BME280;11544;42.020;23.094;2023-04-01T19:58:09;96285.63;;;11.95;96.17
22755;BME280;11544;42.020;23.094;2023-04-01T20:03:25;96286.28;;;11.82;95.75
22755;BME280;11544;42.020;23.094;2023-04-01T20:08:54;96284.25;;;11.56;93.11
22755;BME280;11544;42.020;23.094;2023-04-01T20:17:38;96292.94;;;11.72;94.39
22755;BME280;11544;42.020;23.094;2023-04-01T20:25:30;96307.66;;;11.73;97.13
22755;BME280;11544;42.020;23.094;2023-04-01T20:28:13;96305.69;;;11.45;98.08
22755;BME280;11544;42.020;23.094;2023-04-01T20:31:25;96307.25;;;11.81;97.25
22755;BME280;11544;42.020;23.094;2023-04-01T20:37:30;96319.09;;;11.39;100.00
22755;BME280;11544;42.020;23.094;2023-04-01T20:40:35;96332.38;;;11.34;100.00
22755;BME280;11544;42.020;23.094;2023-04-01T20:43:23;96338.72;;;11.13;100.00
22755;BME280;11544;42.020;23.094;2023-04-01T20:51:22;96318.25;;;11.54;99.55
22755;BME280;11544;42.020;23.094;2023-04-01T21:08:44;96321.72;;;11.21;100.00
22755;BME280;11544;42.020;23.094;2023-04-01T21:11:18;96325.19;;;11.05;100.00
22755;BME280;11544;42.020;23.094;2023-04-01T21:20:28;96336.31;;;10.38;100.00
22755;BME280;11544;42.020;23.094;2023-04-01T21:26:35;96338.03;;;10.57;100.00
22755;BME280;11544;42.020;23.094;2023-04-01T21:32:11;96341.78;;;10.51;100.00
22755;BME280;11544;42.020;23.094;2023-04-01T21:41:00;96330.38;;;9.80;100.00
22755;BME280;11544;42.020;23.094;2023-04-01T21:54:34;96340.78;;;9.99;100.00
22755;BME280;11544;42.020;23.094;2023-04-01T21:57:26;96350.78;;;9.89;100.00
22755;BME280;11544;42.020;23.094;2023-04-01T22:00:18;96357.31;;;10.16;100.00
22755;BME280;11544;42.020;23.094;2023-04-01T22:17:22;96373.00;;;9.77;100.00
22755;BME280;11544;42.020;23.094;2023-04-01T22:23:31;96373.38;;;9.69;100.00
22755;BME280;11544;42.020;23.094;2023-04-01T22:31:29;96387.78;;;9.37;100.00
22755;BME280;11544;42.020;23.094;2023-04-01T22:34:21;96383.91;;;9.27;100.00
22755;BME280;11544;42.020;23.094;2023-04-01T22:37:20;96386.00;;;9.58;100.00
22755;BME280;11544;42.020;23.094;2023-04-01T22:39:49;96396.72;;;9.52;100.00
22755;BME280;11544;42.020;23.094;2023-04-01T22:57:03;96400.53;;;9.02;100.00
22755;BME280;11544;42.020;23.094;2023-04-01T23:02:59;96405.81;;;9.01;100.00
22755;BME280;11544;42.020;23.094;2023-04-01T23:05:31;96410.06;;;9.03;100.00
22755;BME280;11544;42.020;23.094;2023-04-01T23:11:02;96409.56;;;8.73;100.00
22755;BME280;11544;42.020;23.094;2023-04-01T23:14:01;96409.50;;;8.75;100.00
22755;BME280;11544;42.020;23.094;2023-04-01T23:16:36;96403.28;;;8.79;100.00